createdAt,value
2022-10-15T00:01:32.206Z,8.06
2022-10-15T00:05:37.537Z,7.97
2022-10-15T00:09:39.492Z,7.92
2022-10-15T00:13:42.235Z,7.94
2022-10-15T00:17:44.355Z,7.88
2022-10-15T00:21:46.138Z,7.80
2022-10-15T00:25:48.074Z,7.92
2022-10-15T00:29:49.787Z,7.99
2022-10-15T00:33:53.797Z,8.05
2022-10-15T00:37:57.325Z,8.11
2022-10-15T00:41:59.461Z,8.10
2022-10-15T00:46:01.323Z,8.12
2022-10-15T00:50:27.381Z,8.10
2022-10-15T00:54:34.800Z,8.07
2022-10-15T00:58:37.290Z,7.99
2022-10-15T01:02:39.234Z,7.94
2022-10-15T01:06:41.269Z,8.00
2022-10-15T01:11:17.308Z,8.24
2022-10-15T01:15:49.510Z,8.18
2022-10-15T01:20:14.918Z,8.21
2022-10-15T01:24:44.290Z,8.26
2022-10-15T01:29:06.267Z,8.33
2022-10-15T01:33:22.016Z,8.40
2022-10-15T01:37:48.979Z,8.46
2022-10-15T01:42:07.575Z,8.54
2022-10-15T01:46:15.995Z,8.61
2022-10-15T01:50:31.697Z,8.60
2022-10-15T01:54:34.510Z,8.58
2022-10-15T01:58:40.988Z,8.62
2022-10-15T02:02:43.369Z,8.68
2022-10-15T02:06:50.073Z,8.73
2022-10-15T02:11:06.585Z,8.61
2022-10-15T02:15:11.653Z,8.71
2022-10-15T02:19:39.924Z,8.62
2022-10-15T02:23:53.080Z,8.57
2022-10-15T02:28:00.373Z,8.63
2022-10-15T02:32:06.939Z,8.69
2022-10-15T02:36:09.191Z,8.73
2022-10-15T02:40:12.121Z,8.64
2022-10-15T02:44:14.141Z,8.68
2022-10-15T02:48:16.212Z,8.73
2022-10-15T02:52:17.992Z,8.78
2022-10-15T02:56:21.093Z,8.73
2022-10-15T03:00:23.362Z,8.76
2022-10-15T03:04:25.297Z,8.65
2022-10-15T03:08:27.191Z,8.65
2022-10-15T03:12:29.815Z,8.67
2022-10-15T03:16:32.869Z,8.68
2022-10-15T03:20:35.153Z,8.60
2022-10-15T03:24:37.108Z,8.69
2022-10-15T03:28:40.162Z,8.65
2022-10-15T03:36:48.862Z,8.55
2022-10-15T03:40:51.106Z,8.53
2022-10-15T03:45:03.478Z,8.58
2022-10-15T03:49:05.333Z,8.62
2022-10-15T03:53:07.341Z,8.60
2022-10-15T03:57:09.690Z,8.57
2022-10-15T04:01:19.325Z,8.62
2022-10-15T04:05:21.530Z,8.59
2022-10-15T04:09:28.689Z,8.56
2022-10-15T04:13:50.609Z,8.66
2022-10-15T04:17:55.941Z,8.63
2022-10-15T04:21:59.910Z,8.61
2022-10-15T04:26:07.051Z,8.56
2022-10-15T04:30:09.657Z,8.55
2022-10-15T04:34:15.075Z,8.59
2022-10-15T04:38:17.004Z,8.64
2022-10-15T04:42:31.697Z,8.58
2022-10-15T04:46:33.813Z,8.51
2022-10-15T04:50:44.033Z,8.50
2022-10-15T04:54:52.760Z,8.49
2022-10-15T04:58:54.717Z,8.40
2022-10-15T05:02:58.375Z,8.38
2022-10-15T05:07:17.056Z,8.35
2022-10-15T05:11:23.156Z,8.33
2022-10-15T05:15:27.184Z,8.38
2022-10-15T05:19:29.051Z,8.47
2022-10-15T05:23:31.342Z,8.38
2022-10-15T05:27:45.552Z,8.46
2022-10-15T05:31:51.758Z,8.39
2022-10-15T05:35:58.150Z,8.43
2022-10-15T05:40:00.152Z,8.36
2022-10-15T05:44:02.306Z,8.36
2022-10-15T05:48:05.657Z,8.49
2022-10-15T05:52:07.436Z,8.54
2022-10-15T05:56:28.380Z,8.57
2022-10-15T06:00:30.479Z,8.63
2022-10-15T06:04:35.495Z,8.80
2022-10-15T06:08:37.826Z,8.92
2022-10-15T06:12:39.746Z,8.94
2022-10-15T06:16:41.416Z,9.06
2022-10-15T06:20:44.147Z,9.13
2022-10-15T06:24:45.908Z,9.23
2022-10-15T06:28:47.867Z,9.42
2022-10-15T06:32:53.703Z,9.51
2022-10-15T06:36:55.639Z,9.56
2022-10-15T06:40:57.374Z,9.75
2022-10-15T06:44:59.212Z,9.80
2022-10-15T06:49:01.057Z,10.01
2022-10-15T06:53:03.143Z,10.07
2022-10-15T06:57:04.913Z,10.19
2022-10-15T07:01:07.629Z,10.31
2022-10-15T07:05:09.803Z,10.38
2022-10-15T07:09:11.659Z,10.64
2022-10-15T07:13:14.223Z,10.61
2022-10-15T07:17:16.698Z,10.76
2022-10-15T07:21:18.510Z,10.80
2022-10-15T07:25:20.365Z,10.81
2022-10-15T07:29:22.101Z,10.90
2022-10-15T07:33:23.910Z,11.08
2022-10-15T07:37:35.046Z,10.92
2022-10-15T07:41:36.841Z,11.07
2022-10-15T07:45:38.575Z,11.17
2022-10-15T07:49:40.477Z,11.36
2022-10-15T07:53:43.938Z,11.64
2022-10-15T07:57:45.883Z,11.80
2022-10-15T08:01:49.909Z,11.91
2022-10-15T08:05:53.326Z,12.01
2022-10-15T08:09:56.151Z,11.88
2022-10-15T08:14:03.702Z,11.82
2022-10-15T08:18:05.707Z,12.00
2022-10-15T08:22:07.541Z,12.03
2022-10-15T08:26:09.240Z,12.14
2022-10-15T08:30:11.232Z,12.12
2022-10-15T08:34:13.067Z,12.36
2022-10-15T08:38:17.630Z,12.31
2022-10-15T08:42:32.148Z,12.81
2022-10-15T08:46:41.359Z,13.07
2022-10-15T08:51:01.727Z,13.17
2022-10-15T08:55:03.877Z,13.46
2022-10-15T08:59:36.819Z,13.84
2022-10-15T09:04:02.360Z,13.92
2022-10-15T09:08:29.896Z,14.19
2022-10-15T09:12:50.525Z,14.42
2022-10-15T09:16:52.301Z,14.34
2022-10-15T09:20:54.633Z,14.40
2022-10-15T09:24:56.991Z,14.59
2022-10-15T09:29:11.061Z,14.63
2022-10-15T09:33:35.540Z,14.48
2022-10-15T09:38:17.034Z,14.66
2022-10-15T09:42:31.737Z,14.90
2022-10-15T09:46:33.566Z,14.97
2022-10-15T09:50:42.813Z,15.00
2022-10-15T09:54:55.914Z,14.91
2022-10-15T09:58:58.954Z,15.12
2022-10-15T10:03:07.160Z,14.89
2022-10-15T10:07:28.427Z,14.97
2022-10-15T10:12:05.496Z,15.09
2022-10-15T10:16:10.686Z,15.25
2022-10-15T10:20:20.269Z,15.30
2022-10-15T10:24:31.922Z,15.39
2022-10-15T10:28:44.137Z,15.34
2022-10-15T10:32:47.461Z,15.45
2022-10-15T10:36:52.504Z,15.64
2022-10-15T10:40:59.228Z,15.91
2022-10-15T10:45:18.722Z,16.16
2022-10-15T10:49:32.895Z,16.25
2022-10-15T10:53:42.636Z,16.42
2022-10-15T10:57:54.513Z,16.77
2022-10-15T11:01:57.371Z,17.15
2022-10-15T11:06:20.812Z,17.31
2022-10-15T11:10:29.420Z,17.39
2022-10-15T11:14:44.153Z,17.44
2022-10-15T11:19:18.642Z,17.45
2022-10-15T11:23:43.650Z,17.51
2022-10-15T11:27:55.510Z,17.63
2022-10-15T11:32:22.157Z,17.62
2022-10-15T11:36:43.630Z,17.81
2022-10-15T11:41:01.593Z,17.81
2022-10-15T11:45:15.442Z,17.70
2022-10-15T11:49:42.258Z,17.63
2022-10-15T11:54:16.740Z,17.68
2022-10-15T11:58:29.067Z,17.85
2022-10-15T12:02:35.228Z,18.32
2022-10-15T12:06:42.636Z,18.35
2022-10-15T12:11:02.807Z,18.08
2022-10-15T12:15:32.889Z,17.87
2022-10-15T12:19:47.732Z,17.71
2022-10-15T12:23:49.548Z,17.54
2022-10-15T12:28:00.804Z,17.52
2022-10-15T12:32:02.589Z,17.55
2022-10-15T12:36:21.074Z,17.52
2022-10-15T12:40:22.652Z,17.54
2022-10-15T12:44:28.671Z,17.40
2022-10-15T12:48:36.461Z,17.30
2022-10-15T12:53:01.900Z,17.31
2022-10-15T12:57:34.525Z,17.20
2022-10-15T13:01:43.298Z,17.21
2022-10-15T13:05:47.836Z,17.24
2022-10-15T13:09:52.801Z,17.31
2022-10-15T13:14:03.181Z,17.34
2022-10-15T13:18:09.165Z,17.27
2022-10-15T13:22:31.129Z,17.33
2022-10-15T13:26:33.162Z,17.35
2022-10-15T13:30:34.841Z,17.28
2022-10-15T13:34:36.708Z,17.45
2022-10-15T13:38:41.127Z,17.64
2022-10-15T13:43:00.255Z,17.56
2022-10-15T13:47:02.593Z,17.58
2022-10-15T13:51:05.668Z,17.55
2022-10-15T13:55:17.793Z,17.48
2022-10-15T13:59:20.794Z,17.39
2022-10-15T14:03:35.842Z,17.21
2022-10-15T14:07:37.734Z,17.14
2022-10-15T14:11:40.078Z,17.13
2022-10-15T14:15:51.287Z,17.15
2022-10-15T14:20:14.753Z,17.17
2022-10-15T14:24:27.201Z,17.19
2022-10-15T14:28:33.118Z,17.08
2022-10-15T14:32:48.232Z,17.05
2022-10-15T14:36:49.921Z,17.07
2022-10-15T14:41:04.863Z,16.95
2022-10-15T14:45:17.895Z,16.83
2022-10-15T14:49:27.419Z,16.69
2022-10-15T14:53:36.629Z,16.59
2022-10-15T14:57:41.740Z,16.46
2022-10-15T15:01:56.014Z,16.50
2022-10-15T15:06:00.384Z,16.47
2022-10-15T15:10:02.167Z,16.50
2022-10-15T15:14:04.055Z,16.47
2022-10-15T15:18:05.847Z,16.18
2022-10-15T15:22:11.845Z,16.13
2022-10-15T15:26:13.576Z,16.05
2022-10-15T15:30:18.953Z,16.05
2022-10-15T15:34:20.665Z,16.04
2022-10-15T15:38:30.616Z,16.09
2022-10-15T15:42:33.221Z,16.07
2022-10-15T15:46:35.005Z,15.93
2022-10-15T15:50:37.358Z,15.76
2022-10-15T15:54:43.113Z,15.73
2022-10-15T15:58:45.642Z,15.70
2022-10-15T16:02:47.739Z,15.52
2022-10-15T16:06:49.628Z,15.42
2022-10-15T16:10:51.478Z,15.34
2022-10-15T16:14:53.262Z,15.38
2022-10-15T16:18:55.229Z,15.36
2022-10-15T16:22:57.049Z,15.30
2022-10-15T16:26:59.046Z,15.47
2022-10-15T16:31:15.148Z,15.44
2022-10-15T16:35:17.128Z,15.42
2022-10-15T16:39:18.906Z,15.37
2022-10-15T16:43:20.703Z,15.36
2022-10-15T16:47:22.630Z,15.42
2022-10-15T16:51:25.239Z,15.37
2022-10-15T16:55:28.794Z,15.35
2022-10-15T16:59:31.085Z,15.40
2022-10-15T17:03:35.518Z,15.35
2022-10-15T17:07:37.978Z,15.35
2022-10-15T17:11:41.993Z,15.33
2022-10-15T17:15:43.877Z,15.21
2022-10-15T17:19:46.154Z,15.12
2022-10-15T17:23:50.420Z,15.07
2022-10-15T17:27:52.612Z,14.97
2022-10-15T17:31:54.572Z,14.78
2022-10-15T17:35:56.291Z,14.60
2022-10-15T17:39:58.273Z,14.47
2022-10-15T17:44:00.075Z,14.42
2022-10-15T17:48:01.879Z,14.35
2022-10-15T17:52:03.608Z,14.19
2022-10-15T17:56:16.177Z,14.17
2022-10-15T18:00:18.246Z,14.05
2022-10-15T18:04:20.041Z,14.08
2022-10-15T18:08:21.876Z,14.03
2022-10-15T18:12:23.718Z,14.08
2022-10-15T18:16:25.886Z,14.05
2022-10-15T18:20:27.848Z,13.91
2022-10-15T18:24:29.589Z,13.93
2022-10-15T18:28:32.313Z,13.86
2022-10-15T18:36:42.439Z,13.80
2022-10-15T18:40:44.405Z,13.88
2022-10-15T18:44:46.243Z,13.93
2022-10-15T18:48:48.963Z,13.98
2022-10-15T18:52:50.764Z,13.93
2022-10-15T18:56:52.893Z,14.02
2022-10-15T19:00:55.788Z,13.94
2022-10-15T19:04:57.531Z,13.98
2022-10-15T19:09:00.751Z,13.87
2022-10-15T19:13:05.230Z,13.81
2022-10-15T19:17:07.036Z,13.69
2022-10-15T19:21:10.958Z,13.59
2022-10-15T19:25:12.925Z,13.49
2022-10-15T19:29:15.089Z,13.71
2022-10-15T19:33:17.073Z,13.72
2022-10-15T19:37:19.719Z,13.83
2022-10-15T19:41:24.896Z,13.82
2022-10-15T19:45:26.695Z,13.81
2022-10-15T19:49:28.497Z,13.70
2022-10-15T19:53:30.897Z,13.81
2022-10-15T19:57:32.854Z,13.77
2022-10-15T20:01:34.679Z,13.86
2022-10-15T20:05:36.523Z,13.96
2022-10-15T20:09:38.482Z,13.97
2022-10-15T20:13:40.503Z,13.92
2022-10-15T20:17:42.124Z,13.90
2022-10-15T20:21:44.017Z,14.04
2022-10-15T20:25:46.439Z,14.04
2022-10-15T20:29:48.231Z,13.94
2022-10-15T20:33:49.909Z,13.96
2022-10-15T20:37:51.738Z,13.98
2022-10-15T20:41:53.458Z,13.95
2022-10-15T20:45:56.158Z,13.93
2022-10-15T20:49:57.824Z,13.93
2022-10-15T20:53:59.888Z,13.94
2022-10-15T20:58:01.750Z,13.82
2022-10-15T21:02:04.086Z,13.82
2022-10-15T21:06:05.936Z,13.67
2022-10-15T21:10:08.254Z,13.58
2022-10-15T21:14:11.822Z,13.42
2022-10-15T21:18:13.724Z,13.38
2022-10-15T21:22:15.503Z,13.31
2022-10-15T21:26:18.242Z,13.36
2022-10-15T21:30:19.986Z,13.26
2022-10-15T21:34:27.308Z,13.26
2022-10-15T21:38:28.990Z,13.23
2022-10-15T21:42:30.919Z,13.17
2022-10-15T21:46:33.740Z,13.10
2022-10-15T21:50:35.612Z,13.05
2022-10-15T21:54:37.258Z,13.15
2022-10-15T21:58:40.306Z,13.16
2022-10-15T22:02:42.231Z,13.19
2022-10-15T22:06:44.087Z,13.30
2022-10-15T22:10:45.836Z,13.33
2022-10-15T22:14:47.573Z,13.45
2022-10-15T22:18:49.648Z,13.45
2022-10-15T22:22:54.515Z,13.59
2022-10-15T22:26:56.324Z,13.58
2022-10-15T22:31:08.466Z,13.71
2022-10-15T22:35:10.405Z,13.79
2022-10-15T22:39:13.987Z,13.82
2022-10-15T22:43:15.622Z,13.81
2022-10-15T22:47:17.473Z,13.83
2022-10-15T22:51:19.742Z,13.95
2022-10-15T22:55:21.572Z,13.89
2022-10-15T22:59:23.394Z,14.00
2022-10-15T23:03:25.193Z,13.83
2022-10-15T23:07:26.855Z,13.90
2022-10-15T23:11:37.692Z,13.92
2022-10-15T23:15:39.319Z,13.88
2022-10-15T23:19:41.087Z,13.90
2022-10-15T23:23:44.928Z,13.92
2022-10-15T23:27:46.737Z,13.91
2022-10-15T23:31:49.778Z,13.89
2022-10-15T23:36:02.210Z,13.91
2022-10-15T23:40:04.186Z,13.91
2022-10-15T23:44:06.008Z,13.88
2022-10-15T23:48:07.820Z,13.84
2022-10-15T23:52:09.658Z,13.90
2022-10-15T23:56:11.688Z,13.87
